sensor_id;sensor_type;location;lat;lon;timestamp;P1;durP1;ratioP1;P2;durP2;ratioP2
25549;SDS011;13444;50.562;7.262;2023-11-19T00:01:32;2.03;;;1.10;;
25549;SDS011;13444;50.562;7.262;2023-11-19T00:03:58;0.75;;;0.73;;
25549;SDS011;13444;50.562;7.262;2023-11-19T00:06:23;1.27;;;0.85;;
25549;SDS011;13444;50.562;7.262;2023-11-19T00:08:50;1.17;;;0.77;;
25549;SDS011;13444;50.562;7.262;2023-11-19T00:11:16;2.08;;;0.77;;
25549;SDS011;13444;50.562;7.262;2023-11-19T00:13:41;2.15;;;1.10;;
25549;SDS011;13444;50.562;7.262;2023-11-19T00:16:07;2.95;;;1.00;;
25549;SDS011;13444;50.562;7.262;2023-11-19T00:18:34;1.42;;;0.70;;
25549;SDS011;13444;50.562;7.262;2023-11-19T00:21:01;2.17;;;0.90;;
25549;SDS011;13444;50.562;7.262;2023-11-19T00:23:27;1.67;;;0.80;;
25549;SDS011;13444;50.562;7.262;2023-11-19T00:25:53;1.80;;;1.00;;
25549;SDS011;13444;50.562;7.262;2023-11-19T00:28:18;2.70;;;0.90;;
25549;SDS011;13444;50.562;7.262;2023-11-19T00:30:44;1.58;;;0.80;;
25549;SDS011;13444;50.562;7.262;2023-11-19T00:33:10;0.60;;;0.60;;
25549;SDS011;13444;50.562;7.262;2023-11-19T00:35:35;1.02;;;0.75;;
25549;SDS011;13444;50.562;7.262;2023-11-19T00:38:01;1.83;;;0.60;;
25549;SDS011;13444;50.562;7.262;2023-11-19T00:40:27;0.80;;;0.80;;
25549;SDS011;13444;50.562;7.262;2023-11-19T00:42:53;0.90;;;0.73;;
25549;SDS011;13444;50.562;7.262;2023-11-19T00:45:19;1.75;;;0.88;;
25549;SDS011;13444;50.562;7.262;2023-11-19T00:47:44;3.97;;;1.25;;
25549;SDS011;13444;50.562;7.262;2023-11-19T00:50:10;0.93;;;0.80;;
25549;SDS011;13444;50.562;7.262;2023-11-19T00:52:36;1.00;;;0.70;;
25549;SDS011;13444;50.562;7.262;2023-11-19T00:55:02;1.13;;;0.90;;
25549;SDS011;13444;50.562;7.262;2023-11-19T00:57:29;1.35;;;0.70;;
25549;SDS011;13444;50.562;7.262;2023-11-19T00:59:57;0.80;;;0.70;;
25549;SDS011;13444;50.562;7.262;2023-11-19T01:02:23;1.08;;;0.82;;
25549;SDS011;13444;50.562;7.262;2023-11-19T01:04:49;1.77;;;0.73;;
25549;SDS011;13444;50.562;7.262;2023-11-19T01:07:15;2.83;;;0.60;;
25549;SDS011;13444;50.562;7.262;2023-11-19T01:09:44;0.60;;;0.60;;
25549;SDS011;13444;50.562;7.262;2023-11-19T01:12:09;2.15;;;0.90;;
25549;SDS011;13444;50.562;7.262;2023-11-19T01:14:35;1.38;;;1.02;;
25549;SDS011;13444;50.562;7.262;2023-11-19T01:17:01;1.05;;;0.93;;
25549;SDS011;13444;50.562;7.262;2023-11-19T01:19:27;0.60;;;0.60;;
25549;SDS011;13444;50.562;7.262;2023-11-19T01:21:53;1.33;;;0.70;;
25549;SDS011;13444;50.562;7.262;2023-11-19T01:24:19;1.63;;;0.70;;
25549;SDS011;13444;50.562;7.262;2023-11-19T01:26:45;1.83;;;1.00;;
25549;SDS011;13444;50.562;7.262;2023-11-19T01:29:11;1.35;;;0.90;;
25549;SDS011;13444;50.562;7.262;2023-11-19T01:31:39;2.03;;;0.80;;
25549;SDS011;13444;50.562;7.262;2023-11-19T01:34:05;1.10;;;0.68;;
25549;SDS011;13444;50.562;7.262;2023-11-19T01:36:31;3.17;;;1.10;;
25549;SDS011;13444;50.562;7.262;2023-11-19T01:38:56;1.02;;;0.70;;
25549;SDS011;13444;50.562;7.262;2023-11-19T01:41:22;1.45;;;0.70;;
25549;SDS011;13444;50.562;7.262;2023-11-19T01:43:47;0.95;;;0.85;;
25549;SDS011;13444;50.562;7.262;2023-11-19T01:46:13;1.65;;;0.70;;
25549;SDS011;13444;50.562;7.262;2023-11-19T01:48:45;1.27;;;0.70;;
25549;SDS011;13444;50.562;7.262;2023-11-19T01:51:12;0.88;;;0.60;;
25549;SDS011;13444;50.562;7.262;2023-11-19T01:53:41;0.98;;;0.60;;
25549;SDS011;13444;50.562;7.262;2023-11-19T01:56:08;1.48;;;0.60;;
25549;SDS011;13444;50.562;7.262;2023-11-19T01:58:36;0.40;;;0.40;;
25549;SDS011;13444;50.562;7.262;2023-11-19T02:01:04;0.50;;;0.50;;
25549;SDS011;13444;50.562;7.262;2023-11-19T02:03:33;1.50;;;0.50;;
25549;SDS011;13444;50.562;7.262;2023-11-19T02:05:59;1.67;;;0.45;;
25549;SDS011;13444;50.562;7.262;2023-11-19T02:08:26;0.70;;;0.50;;
25549;SDS011;13444;50.562;7.262;2023-11-19T02:10:52;3.03;;;0.57;;
25549;SDS011;13444;50.562;7.262;2023-11-19T02:13:20;0.70;;;0.32;;
25549;SDS011;13444;50.562;7.262;2023-11-19T02:15:45;1.15;;;0.40;;
25549;SDS011;13444;50.562;7.262;2023-11-19T02:18:20;1.15;;;0.52;;
25549;SDS011;13444;50.562;7.262;2023-11-19T02:20:52;2.20;;;0.30;;
25549;SDS011;13444;50.562;7.262;2023-11-19T02:23:21;1.17;;;0.43;;
25549;SDS011;13444;50.562;7.262;2023-11-19T02:25:47;0.38;;;0.38;;
25549;SDS011;13444;50.562;7.262;2023-11-19T02:28:26;0.52;;;0.40;;
25549;SDS011;13444;50.562;7.262;2023-11-19T02:30:52;0.50;;;0.50;;
25549;SDS011;13444;50.562;7.262;2023-11-19T02:33:18;0.43;;;0.43;;
25549;SDS011;13444;50.562;7.262;2023-11-19T02:35:43;2.10;;;0.55;;
25549;SDS011;13444;50.562;7.262;2023-11-19T02:38:09;6.03;;;0.70;;
25549;SDS011;13444;50.562;7.262;2023-11-19T02:40:36;1.95;;;0.50;;
25549;SDS011;13444;50.562;7.262;2023-11-19T02:43:01;1.08;;;0.57;;
25549;SDS011;13444;50.562;7.262;2023-11-19T02:45:29;2.97;;;0.65;;
25549;SDS011;13444;50.562;7.262;2023-11-19T02:47:56;3.05;;;0.60;;
25549;SDS011;13444;50.562;7.262;2023-11-19T02:50:21;0.47;;;0.40;;
25549;SDS011;13444;50.562;7.262;2023-11-19T02:52:51;0.98;;;0.50;;
25549;SDS011;13444;50.562;7.262;2023-11-19T02:55:19;2.50;;;0.55;;
25549;SDS011;13444;50.562;7.262;2023-11-19T02:57:45;0.50;;;0.50;;
25549;SDS011;13444;50.562;7.262;2023-11-19T03:00:16;0.60;;;0.40;;
25549;SDS011;13444;50.562;7.262;2023-11-19T03:02:43;1.15;;;0.35;;
25549;SDS011;13444;50.562;7.262;2023-11-19T03:05:11;3.10;;;0.77;;
25549;SDS011;13444;50.562;7.262;2023-11-19T03:07:39;1.08;;;0.30;;
25549;SDS011;13444;50.562;7.262;2023-11-19T03:10:11;0.60;;;0.50;;
25549;SDS011;13444;50.562;7.262;2023-11-19T03:12:39;0.65;;;0.50;;
25549;SDS011;13444;50.562;7.262;2023-11-19T03:15:08;1.17;;;0.43;;
25549;SDS011;13444;50.562;7.262;2023-11-19T03:17:35;1.60;;;0.45;;
25549;SDS011;13444;50.562;7.262;2023-11-19T03:20:04;1.98;;;0.50;;
25549;SDS011;13444;50.562;7.262;2023-11-19T03:22:31;0.65;;;0.50;;
25549;SDS011;13444;50.562;7.262;2023-11-19T03:24:59;3.67;;;0.47;;
25549;SDS011;13444;50.562;7.262;2023-11-19T03:27:24;0.90;;;0.40;;
25549;SDS011;13444;50.562;7.262;2023-11-19T03:29:50;1.55;;;0.60;;
25549;SDS011;13444;50.562;7.262;2023-11-19T03:32:15;3.85;;;0.77;;
25549;SDS011;13444;50.562;7.262;2023-11-19T03:34:41;0.90;;;0.70;;
25549;SDS011;13444;50.562;7.262;2023-11-19T03:37:06;1.80;;;0.60;;
25549;SDS011;13444;50.562;7.262;2023-11-19T03:39:32;1.40;;;0.60;;
25549;SDS011;13444;50.562;7.262;2023-11-19T03:41:57;4.15;;;0.73;;
25549;SDS011;13444;50.562;7.262;2023-11-19T03:44:23;1.17;;;0.60;;
25549;SDS011;13444;50.562;7.262;2023-11-19T03:46:51;0.82;;;0.75;;
25549;SDS011;13444;50.562;7.262;2023-11-19T03:49:17;1.88;;;0.65;;
25549;SDS011;13444;50.562;7.262;2023-11-19T03:51:42;2.55;;;1.00;;
25549;SDS011;13444;50.562;7.262;2023-11-19T03:54:08;4.05;;;1.00;;
25549;SDS011;13444;50.562;7.262;2023-11-19T03:56:33;1.02;;;0.85;;
25549;SDS011;13444;50.562;7.262;2023-11-19T03:58:59;1.48;;;1.00;;
25549;SDS011;13444;50.562;7.262;2023-11-19T04:01:24;6.10;;;1.00;;
25549;SDS011;13444;50.562;7.262;2023-11-19T04:03:50;2.42;;;1.00;;
25549;SDS011;13444;50.562;7.262;2023-11-19T04:06:15;1.92;;;0.80;;
25549;SDS011;13444;50.562;7.262;2023-11-19T04:08:41;2.40;;;0.70;;
25549;SDS011;13444;50.562;7.262;2023-11-19T04:11:06;4.38;;;0.70;;
25549;SDS011;13444;50.562;7.262;2023-11-19T04:13:33;1.05;;;0.50;;
25549;SDS011;13444;50.562;7.262;2023-11-19T04:15:59;2.08;;;0.50;;
25549;SDS011;13444;50.562;7.262;2023-11-19T04:18:25;0.82;;;0.60;;
25549;SDS011;13444;50.562;7.262;2023-11-19T04:20:50;1.27;;;0.47;;
25549;SDS011;13444;50.562;7.262;2023-11-19T04:23:16;1.42;;;0.40;;
25549;SDS011;13444;50.562;7.262;2023-11-19T04:25:41;3.70;;;0.63;;
25549;SDS011;13444;50.562;7.262;2023-11-19T04:28:07;3.47;;;0.50;;
25549;SDS011;13444;50.562;7.262;2023-11-19T04:30:33;2.67;;;0.50;;
25549;SDS011;13444;50.562;7.262;2023-11-19T04:32:58;2.50;;;0.50;;
25549;SDS011;13444;50.562;7.262;2023-11-19T04:35:24;2.40;;;0.63;;
25549;SDS011;13444;50.562;7.262;2023-11-19T04:37:51;0.88;;;0.50;;
25549;SDS011;13444;50.562;7.262;2023-11-19T04:40:16;1.20;;;0.63;;
25549;SDS011;13444;50.562;7.262;2023-11-19T04:42:43;1.35;;;0.60;;
25549;SDS011;13444;50.562;7.262;2023-11-19T04:45:09;1.77;;;0.60;;
25549;SDS011;13444;50.562;7.262;2023-11-19T04:47:35;0.43;;;0.43;;
25549;SDS011;13444;50.562;7.262;2023-11-19T04:50:01;2.42;;;0.60;;
25549;SDS011;13444;50.562;7.262;2023-11-19T04:52:28;2.05;;;0.50;;
25549;SDS011;13444;50.562;7.262;2023-11-19T04:54:54;0.50;;;0.50;;
25549;SDS011;13444;50.562;7.262;2023-11-19T04:57:19;0.50;;;0.50;;
25549;SDS011;13444;50.562;7.262;2023-11-19T04:59:45;0.80;;;0.50;;
25549;SDS011;13444;50.562;7.262;2023-11-19T05:02:10;1.80;;;0.50;;
25549;SDS011;13444;50.562;7.262;2023-11-19T05:04:36;3.95;;;0.52;;
25549;SDS011;13444;50.562;7.262;2023-11-19T05:07:05;2.50;;;0.40;;
25549;SDS011;13444;50.562;7.262;2023-11-19T05:09:30;2.03;;;0.80;;
25549;SDS011;13444;50.562;7.262;2023-11-19T05:11:56;1.70;;;0.60;;
25549;SDS011;13444;50.562;7.262;2023-11-19T05:14:22;0.73;;;0.57;;
25549;SDS011;13444;50.562;7.262;2023-11-19T05:16:49;1.17;;;1.08;;
25549;SDS011;13444;50.562;7.262;2023-11-19T05:19:14;4.75;;;1.20;;
25549;SDS011;13444;50.562;7.262;2023-11-19T05:21:43;2.50;;;1.13;;
25549;SDS011;13444;50.562;7.262;2023-11-19T05:24:09;3.33;;;1.00;;
25549;SDS011;13444;50.562;7.262;2023-11-19T05:26:34;4.38;;;1.00;;
25549;SDS011;13444;50.562;7.262;2023-11-19T05:29:00;4.38;;;2.40;;
25549;SDS011;13444;50.562;7.262;2023-11-19T05:31:25;2.70;;;2.20;;
25549;SDS011;13444;50.562;7.262;2023-11-19T05:33:51;6.40;;;2.20;;
25549;SDS011;13444;50.562;7.262;2023-11-19T05:36:17;4.50;;;1.80;;
25549;SDS011;13444;50.562;7.262;2023-11-19T05:38:42;5.20;;;1.73;;
25549;SDS011;13444;50.562;7.262;2023-11-19T05:41:09;1.05;;;1.00;;
25549;SDS011;13444;50.562;7.262;2023-11-19T05:43:35;1.92;;;1.00;;
25549;SDS011;13444;50.562;7.262;2023-11-19T05:46:00;3.83;;;1.10;;
25549;SDS011;13444;50.562;7.262;2023-11-19T05:48:26;2.20;;;1.00;;
25549;SDS011;13444;50.562;7.262;2023-11-19T05:50:52;2.15;;;1.15;;
25549;SDS011;13444;50.562;7.262;2023-11-19T05:53:18;1.35;;;0.90;;
25549;SDS011;13444;50.562;7.262;2023-11-19T05:55:44;1.92;;;0.98;;
25549;SDS011;13444;50.562;7.262;2023-11-19T05:58:13;3.05;;;1.20;;
25549;SDS011;13444;50.562;7.262;2023-11-19T06:00:39;2.17;;;0.88;;
25549;SDS011;13444;50.562;7.262;2023-11-19T06:03:05;2.25;;;0.93;;
25549;SDS011;13444;50.562;7.262;2023-11-19T06:05:34;1.10;;;0.98;;
25549;SDS011;13444;50.562;7.262;2023-11-19T06:07:59;1.40;;;0.90;;
25549;SDS011;13444;50.562;7.262;2023-11-19T06:10:25;2.08;;;1.27;;
25549;SDS011;13444;50.562;7.262;2023-11-19T06:12:55;3.10;;;0.93;;
25549;SDS011;13444;50.562;7.262;2023-11-19T06:15:24;3.38;;;0.93;;
25549;SDS011;13444;50.562;7.262;2023-11-19T06:17:51;4.85;;;1.50;;
25549;SDS011;13444;50.562;7.262;2023-11-19T06:20:17;6.38;;;2.17;;
25549;SDS011;13444;50.562;7.262;2023-11-19T06:22:44;4.28;;;1.52;;
25549;SDS011;13444;50.562;7.262;2023-11-19T06:25:10;6.22;;;1.30;;
25549;SDS011;13444;50.562;7.262;2023-11-19T06:27:37;1.60;;;0.90;;
25549;SDS011;13444;50.562;7.262;2023-11-19T06:30:02;4.07;;;1.05;;
25549;SDS011;13444;50.562;7.262;2023-11-19T06:32:28;4.57;;;1.20;;
25549;SDS011;13444;50.562;7.262;2023-11-19T06:34:54;2.33;;;1.20;;
25549;SDS011;13444;50.562;7.262;2023-11-19T06:37:20;3.65;;;1.02;;
25549;SDS011;13444;50.562;7.262;2023-11-19T06:39:45;4.93;;;1.33;;
25549;SDS011;13444;50.562;7.262;2023-11-19T06:42:11;2.47;;;1.17;;
25549;SDS011;13444;50.562;7.262;2023-11-19T06:44:36;5.22;;;1.35;;
25549;SDS011;13444;50.562;7.262;2023-11-19T06:47:02;11.18;;;2.33;;
25549;SDS011;13444;50.562;7.262;2023-11-19T06:49:27;11.25;;;1.77;;
25549;SDS011;13444;50.562;7.262;2023-11-19T06:51:53;7.00;;;1.90;;
25549;SDS011;13444;50.562;7.262;2023-11-19T06:54:19;10.90;;;2.25;;
25549;SDS011;13444;50.562;7.262;2023-11-19T06:56:44;10.98;;;2.30;;
25549;SDS011;13444;50.562;7.262;2023-11-19T06:59:10;10.35;;;2.72;;
25549;SDS011;13444;50.562;7.262;2023-11-19T07:01:35;13.98;;;2.22;;
25549;SDS011;13444;50.562;7.262;2023-11-19T07:04:02;14.35;;;2.42;;
25549;SDS011;13444;50.562;7.262;2023-11-19T07:06:34;9.50;;;2.47;;
25549;SDS011;13444;50.562;7.262;2023-11-19T07:09:00;8.60;;;2.08;;
25549;SDS011;13444;50.562;7.262;2023-11-19T07:11:34;11.52;;;3.03;;
25549;SDS011;13444;50.562;7.262;2023-11-19T07:14:06;10.77;;;2.17;;
25549;SDS011;13444;50.562;7.262;2023-11-19T07:16:33;5.95;;;2.25;;
25549;SDS011;13444;50.562;7.262;2023-11-19T07:18:59;10.63;;;2.58;;
25549;SDS011;13444;50.562;7.262;2023-11-19T07:21:25;17.95;;;2.90;;
25549;SDS011;13444;50.562;7.262;2023-11-19T07:23:53;10.52;;;2.08;;
25549;SDS011;13444;50.562;7.262;2023-11-19T07:26:19;9.68;;;2.60;;
25549;SDS011;13444;50.562;7.262;2023-11-19T07:28:44;10.75;;;1.95;;
25549;SDS011;13444;50.562;7.262;2023-11-19T07:31:10;14.60;;;2.72;;
25549;SDS011;13444;50.562;7.262;2023-11-19T07:33:36;14.90;;;2.92;;
25549;SDS011;13444;50.562;7.262;2023-11-19T07:36:01;8.55;;;2.85;;
25549;SDS011;13444;50.562;7.262;2023-11-19T07:38:27;10.88;;;2.58;;
25549;SDS011;13444;50.562;7.262;2023-11-19T07:40:53;12.40;;;2.78;;
25549;SDS011;13444;50.562;7.262;2023-11-19T07:43:18;11.77;;;3.22;;
25549;SDS011;13444;50.562;7.262;2023-11-19T07:45:44;12.65;;;3.75;;
25549;SDS011;13444;50.562;7.262;2023-11-19T07:48:10;11.82;;;2.67;;
25549;SDS011;13444;50.562;7.262;2023-11-19T07:50:38;19.75;;;3.70;;
25549;SDS011;13444;50.562;7.262;2023-11-19T07:53:05;9.80;;;2.65;;
25549;SDS011;13444;50.562;7.262;2023-11-19T07:55:32;11.80;;;3.10;;
25549;SDS011;13444;50.562;7.262;2023-11-19T07:57:58;17.33;;;4.13;;
25549;SDS011;13444;50.562;7.262;2023-11-19T08:00:23;19.65;;;3.15;;
25549;SDS011;13444;50.562;7.262;2023-11-19T08:02:49;11.57;;;2.83;;
25549;SDS011;13444;50.562;7.262;2023-11-19T08:05:14;13.40;;;2.70;;
25549;SDS011;13444;50.562;7.262;2023-11-19T08:07:40;15.38;;;3.30;;
25549;SDS011;13444;50.562;7.262;2023-11-19T08:10:06;15.77;;;3.45;;
25549;SDS011;13444;50.562;7.262;2023-11-19T08:12:34;15.30;;;3.60;;
25549;SDS011;13444;50.562;7.262;2023-11-19T08:15:01;13.30;;;3.05;;
25549;SDS011;13444;50.562;7.262;2023-11-19T08:17:27;12.73;;;2.97;;
25549;SDS011;13444;50.562;7.262;2023-11-19T08:19:53;16.17;;;3.53;;
25549;SDS011;13444;50.562;7.262;2023-11-19T08:22:18;13.48;;;3.28;;
25549;SDS011;13444;50.562;7.262;2023-11-19T08:24:44;18.63;;;3.45;;
25549;SDS011;13444;50.562;7.262;2023-11-19T08:27:09;13.85;;;2.80;;
25549;SDS011;13444;50.562;7.262;2023-11-19T08:29:35;17.48;;;3.17;;
25549;SDS011;13444;50.562;7.262;2023-11-19T08:32:01;14.25;;;3.53;;
25549;SDS011;13444;50.562;7.262;2023-11-19T08:34:28;15.95;;;3.53;;
25549;SDS011;13444;50.562;7.262;2023-11-19T08:36:54;16.27;;;2.80;;
25549;SDS011;13444;50.562;7.262;2023-11-19T08:39:20;13.75;;;3.50;;
25549;SDS011;13444;50.562;7.262;2023-11-19T08:41:48;15.68;;;3.38;;
25549;SDS011;13444;50.562;7.262;2023-11-19T08:44:13;13.85;;;3.22;;
25549;SDS011;13444;50.562;7.262;2023-11-19T08:46:45;14.65;;;3.53;;
25549;SDS011;13444;50.562;7.262;2023-11-19T08:49:12;12.23;;;3.08;;
25549;SDS011;13444;50.562;7.262;2023-11-19T08:51:37;16.17;;;3.45;;
25549;SDS011;13444;50.562;7.262;2023-11-19T08:54:03;11.50;;;3.08;;
25549;SDS011;13444;50.562;7.262;2023-11-19T08:56:29;9.23;;;3.00;;
25549;SDS011;13444;50.562;7.262;2023-11-19T08:58:57;18.35;;;3.90;;
25549;SDS011;13444;50.562;7.262;2023-11-19T09:01:23;15.77;;;3.70;;
25549;SDS011;13444;50.562;7.262;2023-11-19T09:03:49;15.40;;;3.65;;
25549;SDS011;13444;50.562;7.262;2023-11-19T09:06:15;17.42;;;3.50;;
25549;SDS011;13444;50.562;7.262;2023-11-19T09:08:42;14.45;;;3.40;;
25549;SDS011;13444;50.562;7.262;2023-11-19T09:11:07;12.85;;;3.67;;
25549;SDS011;13444;50.562;7.262;2023-11-19T09:13:34;21.15;;;3.65;;
25549;SDS011;13444;50.562;7.262;2023-11-19T09:16:00;17.80;;;3.38;;
25549;SDS011;13444;50.562;7.262;2023-11-19T09:18:28;12.70;;;3.08;;
25549;SDS011;13444;50.562;7.262;2023-11-19T09:20:54;16.27;;;3.88;;
25549;SDS011;13444;50.562;7.262;2023-11-19T09:23:19;20.75;;;3.92;;
25549;SDS011;13444;50.562;7.262;2023-11-19T09:25:45;14.15;;;3.72;;
25549;SDS011;13444;50.562;7.262;2023-11-19T09:28:11;14.73;;;3.55;;
25549;SDS011;13444;50.562;7.262;2023-11-19T09:30:36;10.25;;;2.72;;
25549;SDS011;13444;50.562;7.262;2023-11-19T09:33:02;15.02;;;3.65;;
25549;SDS011;13444;50.562;7.262;2023-11-19T09:35:27;11.85;;;3.35;;
25549;SDS011;13444;50.562;7.262;2023-11-19T09:37:53;16.25;;;3.42;;
25549;SDS011;13444;50.562;7.262;2023-11-19T09:40:18;14.50;;;3.78;;
25549;SDS011;13444;50.562;7.262;2023-11-19T09:42:45;16.15;;;3.05;;
25549;SDS011;13444;50.562;7.262;2023-11-19T09:45:13;13.77;;;3.75;;
25549;SDS011;13444;50.562;7.262;2023-11-19T09:47:42;13.18;;;3.40;;
25549;SDS011;13444;50.562;7.262;2023-11-19T09:50:19;10.15;;;2.63;;
25549;SDS011;13444;50.562;7.262;2023-11-19T09:52:45;13.55;;;3.65;;
25549;SDS011;13444;50.562;7.262;2023-11-19T09:55:12;14.00;;;3.88;;
25549;SDS011;13444;50.562;7.262;2023-11-19T09:57:41;15.27;;;3.30;;
25549;SDS011;13444;50.562;7.262;2023-11-19T10:00:07;12.95;;;3.15;;
25549;SDS011;13444;50.562;7.262;2023-11-19T10:02:35;18.10;;;3.63;;
25549;SDS011;13444;50.562;7.262;2023-11-19T10:05:02;13.68;;;3.78;;
25549;SDS011;13444;50.562;7.262;2023-11-19T10:07:31;14.95;;;4.00;;
25549;SDS011;13444;50.562;7.262;2023-11-19T10:10:00;15.75;;;3.85;;
25549;SDS011;13444;50.562;7.262;2023-11-19T10:12:29;14.27;;;3.70;;
25549;SDS011;13444;50.562;7.262;2023-11-19T10:14:56;15.10;;;3.63;;
25549;SDS011;13444;50.562;7.262;2023-11-19T10:17:27;14.45;;;3.22;;
25549;SDS011;13444;50.562;7.262;2023-11-19T10:19:54;15.82;;;3.53;;
25549;SDS011;13444;50.562;7.262;2023-11-19T10:22:20;11.05;;;3.33;;
25549;SDS011;13444;50.562;7.262;2023-11-19T10:24:48;17.38;;;4.00;;
25549;SDS011;13444;50.562;7.262;2023-11-19T10:27:13;14.35;;;3.72;;
25549;SDS011;13444;50.562;7.262;2023-11-19T10:29:39;12.98;;;3.83;;
25549;SDS011;13444;50.562;7.262;2023-11-19T10:32:05;13.73;;;3.10;;
25549;SDS011;13444;50.562;7.262;2023-11-19T10:34:31;22.13;;;4.07;;
25549;SDS011;13444;50.562;7.262;2023-11-19T10:36:56;15.68;;;3.85;;
25549;SDS011;13444;50.562;7.262;2023-11-19T10:39:22;13.63;;;3.80;;
25549;SDS011;13444;50.562;7.262;2023-11-19T10:41:49;21.00;;;4.40;;
25549;SDS011;13444;50.562;7.262;2023-11-19T10:44:34;15.15;;;3.58;;
25549;SDS011;13444;50.562;7.262;2023-11-19T10:47:00;16.10;;;3.80;;
25549;SDS011;13444;50.562;7.262;2023-11-19T10:49:26;20.40;;;4.43;;
25549;SDS011;13444;50.562;7.262;2023-11-19T10:51:52;14.93;;;3.90;;
25549;SDS011;13444;50.562;7.262;2023-11-19T10:54:21;16.63;;;4.05;;
25549;SDS011;13444;50.562;7.262;2023-11-19T10:56:49;14.73;;;3.78;;
25549;SDS011;13444;50.562;7.262;2023-11-19T10:59:21;17.73;;;3.65;;
25549;SDS011;13444;50.562;7.262;2023-11-19T11:01:47;14.02;;;3.38;;
25549;SDS011;13444;50.562;7.262;2023-11-19T11:04:16;16.35;;;3.88;;
25549;SDS011;13444;50.562;7.262;2023-11-19T11:06:48;13.52;;;3.42;;
25549;SDS011;13444;50.562;7.262;2023-11-19T11:09:13;15.05;;;3.63;;
25549;SDS011;13444;50.562;7.262;2023-11-19T11:11:40;11.55;;;3.15;;
25549;SDS011;13444;50.562;7.262;2023-11-19T11:14:09;15.73;;;3.38;;
25549;SDS011;13444;50.562;7.262;2023-11-19T11:16:37;16.17;;;3.50;;
25549;SDS011;13444;50.562;7.262;2023-11-19T11:19:04;16.35;;;3.40;;
25549;SDS011;13444;50.562;7.262;2023-11-19T11:21:30;13.20;;;3.80;;
25549;SDS011;13444;50.562;7.262;2023-11-19T11:24:08;15.35;;;3.35;;
25549;SDS011;13444;50.562;7.262;2023-11-19T11:27:18;11.10;;;3.22;;
25549;SDS011;13444;50.562;7.262;2023-11-19T11:32:57;12.95;;;3.08;;
25549;SDS011;13444;50.562;7.262;2023-11-19T11:36:17;14.73;;;3.75;;
25549;SDS011;13444;50.562;7.262;2023-11-19T11:38:48;15.98;;;3.75;;
25549;SDS011;13444;50.562;7.262;2023-11-19T11:41:15;12.57;;;3.15;;
25549;SDS011;13444;50.562;7.262;2023-11-19T11:43:51;15.45;;;3.53;;
25549;SDS011;13444;50.562;7.262;2023-11-19T11:49:03;20.73;;;6.82;;
25549;SDS011;13444;50.562;7.262;2023-11-19T11:51:57;12.30;;;2.85;;
25549;SDS011;13444;50.562;7.262;2023-11-19T11:57:01;18.67;;;3.55;;
25549;SDS011;13444;50.562;7.262;2023-11-19T11:59:34;16.40;;;3.47;;
25549;SDS011;13444;50.562;7.262;2023-11-19T12:02:07;12.85;;;3.28;;
25549;SDS011;13444;50.562;7.262;2023-11-19T12:04:34;19.83;;;4.07;;
25549;SDS011;13444;50.562;7.262;2023-11-19T12:09:51;13.23;;;2.90;;
25549;SDS011;13444;50.562;7.262;2023-11-19T12:12:33;14.82;;;3.85;;
25549;SDS011;13444;50.562;7.262;2023-11-19T12:15:01;12.13;;;3.20;;
25549;SDS011;13444;50.562;7.262;2023-11-19T12:20:17;17.92;;;3.72;;
25549;SDS011;13444;50.562;7.262;2023-11-19T12:22:44;12.90;;;3.28;;
25549;SDS011;13444;50.562;7.262;2023-11-19T12:25:11;10.32;;;3.00;;
25549;SDS011;13444;50.562;7.262;2023-11-19T12:27:41;11.65;;;3.00;;
25549;SDS011;13444;50.562;7.262;2023-11-19T12:30:08;13.77;;;2.92;;
25549;SDS011;13444;50.562;7.262;2023-11-19T12:32:41;13.73;;;3.33;;
25549;SDS011;13444;50.562;7.262;2023-11-19T12:35:08;11.00;;;2.95;;
25549;SDS011;13444;50.562;7.262;2023-11-19T12:37:46;10.40;;;3.00;;
25549;SDS011;13444;50.562;7.262;2023-11-19T12:40:14;9.70;;;2.50;;
25549;SDS011;13444;50.562;7.262;2023-11-19T12:42:42;12.00;;;2.53;;
25549;SDS011;13444;50.562;7.262;2023-11-19T12:45:08;13.07;;;2.90;;
25549;SDS011;13444;50.562;7.262;2023-11-19T12:47:36;13.23;;;3.47;;
25549;SDS011;13444;50.562;7.262;2023-11-19T12:50:02;12.75;;;2.78;;
25549;SDS011;13444;50.562;7.262;2023-11-19T12:52:28;17.95;;;3.42;;
25549;SDS011;13444;50.562;7.262;2023-11-19T12:54:55;16.90;;;2.80;;
25549;SDS011;13444;50.562;7.262;2023-11-19T12:57:20;9.80;;;2.85;;
25549;SDS011;13444;50.562;7.262;2023-11-19T13:00:00;11.13;;;2.33;;
25549;SDS011;13444;50.562;7.262;2023-11-19T13:02:44;14.27;;;3.10;;
25549;SDS011;13444;50.562;7.262;2023-11-19T13:05:26;10.85;;;2.35;;
25549;SDS011;13444;50.562;7.262;2023-11-19T13:08:04;14.82;;;3.33;;
25549;SDS011;13444;50.562;7.262;2023-11-19T13:10:34;9.15;;;2.70;;
25549;SDS011;13444;50.562;7.262;2023-11-19T13:13:20;10.10;;;2.80;;
25549;SDS011;13444;50.562;7.262;2023-11-19T13:15:46;9.50;;;3.30;;
25549;SDS011;13444;50.562;7.262;2023-11-19T13:18:16;9.98;;;2.75;;
25549;SDS011;13444;50.562;7.262;2023-11-19T13:20:41;16.25;;;3.38;;
25549;SDS011;13444;50.562;7.262;2023-11-19T13:23:08;12.43;;;3.22;;
25549;SDS011;13444;50.562;7.262;2023-11-19T13:25:33;8.00;;;2.58;;
25549;SDS011;13444;50.562;7.262;2023-11-19T13:27:59;11.73;;;2.83;;
25549;SDS011;13444;50.562;7.262;2023-11-19T13:30:25;15.57;;;3.53;;
25549;SDS011;13444;50.562;7.262;2023-11-19T13:32:51;12.43;;;2.83;;
25549;SDS011;13444;50.562;7.262;2023-11-19T13:35:17;12.32;;;3.15;;
25549;SDS011;13444;50.562;7.262;2023-11-19T13:37:46;9.73;;;2.97;;
25549;SDS011;13444;50.562;7.262;2023-11-19T13:40:12;15.57;;;3.47;;
25549;SDS011;13444;50.562;7.262;2023-11-19T13:42:43;13.93;;;3.35;;
25549;SDS011;13444;50.562;7.262;2023-11-19T13:45:12;13.52;;;3.35;;
25549;SDS011;13444;50.562;7.262;2023-11-19T13:47:39;14.85;;;3.10;;
25549;SDS011;13444;50.562;7.262;2023-11-19T13:50:09;13.25;;;3.25;;
25549;SDS011;13444;50.562;7.262;2023-11-19T13:52:39;15.25;;;3.15;;
25549;SDS011;13444;50.562;7.262;2023-11-19T13:55:07;19.30;;;3.28;;
25549;SDS011;13444;50.562;7.262;2023-11-19T13:57:34;13.40;;;3.47;;
25549;SDS011;13444;50.562;7.262;2023-11-19T14:00:03;13.23;;;3.00;;
25549;SDS011;13444;50.562;7.262;2023-11-19T14:02:36;11.90;;;3.63;;
25549;SDS011;13444;50.562;7.262;2023-11-19T14:05:01;10.68;;;2.90;;
25549;SDS011;13444;50.562;7.262;2023-11-19T14:07:27;17.90;;;4.15;;
25549;SDS011;13444;50.562;7.262;2023-11-19T14:09:53;15.25;;;3.97;;
25549;SDS011;13444;50.562;7.262;2023-11-19T14:12:19;11.77;;;2.80;;
25549;SDS011;13444;50.562;7.262;2023-11-19T14:14:45;13.98;;;3.00;;
25549;SDS011;13444;50.562;7.262;2023-11-19T14:17:11;12.68;;;3.40;;
25549;SDS011;13444;50.562;7.262;2023-11-19T14:19:36;14.32;;;3.42;;
25549;SDS011;13444;50.562;7.262;2023-11-19T14:22:04;15.98;;;3.95;;
25549;SDS011;13444;50.562;7.262;2023-11-19T14:24:29;16.05;;;3.70;;
25549;SDS011;13444;50.562;7.262;2023-11-19T14:26:55;10.63;;;2.67;;
25549;SDS011;13444;50.562;7.262;2023-11-19T14:29:23;12.38;;;3.17;;
25549;SDS011;13444;50.562;7.262;2023-11-19T14:31:51;11.85;;;4.60;;
25549;SDS011;13444;50.562;7.262;2023-11-19T14:34:17;12.82;;;3.33;;
25549;SDS011;13444;50.562;7.262;2023-11-19T14:36:44;13.82;;;3.00;;
25549;SDS011;13444;50.562;7.262;2023-11-19T14:39:10;12.07;;;3.38;;
25549;SDS011;13444;50.562;7.262;2023-11-19T14:41:35;14.02;;;2.55;;
25549;SDS011;13444;50.562;7.262;2023-11-19T14:44:01;11.23;;;2.67;;
25549;SDS011;13444;50.562;7.262;2023-11-19T14:46:28;10.52;;;3.03;;
25549;SDS011;13444;50.562;7.262;2023-11-19T14:48:53;12.02;;;3.15;;
25549;SDS011;13444;50.562;7.262;2023-11-19T14:51:19;17.40;;;3.00;;
25549;SDS011;13444;50.562;7.262;2023-11-19T14:53:48;12.95;;;3.10;;
25549;SDS011;13444;50.562;7.262;2023-11-19T14:56:14;13.32;;;2.90;;